sensor_id;sensor_type;location;lat;lon;timestamp;pressure;altitude;pressure_sealevel;temperature;humidity
50650;BME280;36621;60.058;30.346;2023-04-03T00:05:28;102253.22;;;-0.68;67.99
50650;BME280;36621;60.058;30.346;2023-04-03T00:13:02;102255.41;;;-0.64;68.89
50650;BME280;36621;60.058;30.346;2023-04-03T00:20:34;102280.78;;;-0.50;69.01
50650;BME280;36621;60.058;30.346;2023-04-03T00:28:07;102270.00;;;-0.66;69.14
50650;BME280;36621;60.058;30.346;2023-04-03T00:35:39;102211.34;;;-0.96;68.71
50650;BME280;36621;60.058;30.346;2023-04-03T00:43:14;102268.34;;;-0.59;68.27
50650;BME280;36621;60.058;30.346;2023-04-03T00:50:47;102263.72;;;-0.75;68.98
50650;BME280;36621;60.058;30.346;2023-04-03T00:58:22;102220.06;;;-0.94;69.06
50650;BME280;36621;60.058;30.346;2023-04-03T01:05:58;102257.28;;;-0.91;70.42
50650;BME280;36621;60.058;30.346;2023-04-03T01:13:33;102207.63;;;-1.03;68.81
50650;BME280;36621;60.058;30.346;2023-04-03T01:29:21;102248.81;;;-0.78;69.29
50650;BME280;36621;60.058;30.346;2023-04-03T01:36:54;102199.69;;;-1.13;68.67
50650;BME280;36621;60.058;30.346;2023-04-03T01:44:27;102205.19;;;-1.23;69.16
50650;BME280;36621;60.058;30.346;2023-04-03T01:52:00;102216.47;;;-1.11;69.07
50650;BME280;36621;60.058;30.346;2023-04-03T01:59:33;102233.00;;;-0.89;68.36
50650;BME280;36621;60.058;30.346;2023-04-03T02:07:09;102179.41;;;-1.42;68.29
50650;BME280;36621;60.058;30.346;2023-04-03T02:14:41;102223.81;;;-1.13;68.29
50650;BME280;36621;60.058;30.346;2023-04-03T02:22:20;102230.91;;;-1.03;68.65
50650;BME280;36621;60.058;30.346;2023-04-03T02:29:52;102176.06;;;-1.44;68.29
50650;BME280;36621;60.058;30.346;2023-04-03T02:37:26;102223.06;;;-1.23;69.37
50650;BME280;36621;60.058;30.346;2023-04-03T02:45:03;102198.38;;;-1.35;69.05
50650;BME280;36621;60.058;30.346;2023-04-03T02:52:39;102196.69;;;-1.36;68.61
50650;BME280;36621;60.058;30.346;2023-04-03T03:09:34;102231.59;;;-1.28;68.95
50650;BME280;36621;60.058;30.346;2023-04-03T03:17:17;102235.81;;;-1.25;69.05
50650;BME280;36621;60.058;30.346;2023-04-03T03:25:12;102212.91;;;-1.19;69.41
50650;BME280;36621;60.058;30.346;2023-04-03T03:33:07;102250.50;;;-1.03;68.54
50650;BME280;36621;60.058;30.346;2023-04-03T03:40:42;102238.97;;;-1.03;68.54
50650;BME280;36621;60.058;30.346;2023-04-03T03:49:41;102197.06;;;-1.31;68.79
50650;BME280;36621;60.058;30.346;2023-04-03T03:56:54;102216.66;;;-1.30;69.05
50650;BME280;36621;60.058;30.346;2023-04-03T04:04:36;102248.94;;;-1.14;71.53
50650;BME280;36621;60.058;30.346;2023-04-03T04:20:39;102251.88;;;-0.99;70.05
50650;BME280;36621;60.058;30.346;2023-04-03T04:28:14;102203.22;;;-1.12;69.97
50650;BME280;36621;60.058;30.346;2023-04-03T04:35:48;102244.28;;;-0.77;69.30
50650;BME280;36621;60.058;30.346;2023-04-03T04:43:28;102191.44;;;-1.19;71.69
50650;BME280;36621;60.058;30.346;2023-04-03T04:51:05;102223.97;;;-0.80;69.64
50650;BME280;36621;60.058;30.346;2023-04-03T19:14:41;102211.09;;;1.30;54.78
50650;BME280;36621;60.058;30.346;2023-04-03T19:22:14;102199.19;;;1.24;54.26
50650;BME280;36621;60.058;30.346;2023-04-03T19:29:51;102181.75;;;1.12;54.66
50650;BME280;36621;60.058;30.346;2023-04-03T19:37:34;102127.38;;;0.85;54.76
50650;BME280;36621;60.058;30.346;2023-04-03T19:45:13;102091.97;;;0.73;54.69
50650;BME280;36621;60.058;30.346;2023-04-03T19:52:46;102161.84;;;0.90;54.87
50650;BME280;36621;60.058;30.346;2023-04-03T20:00:20;102179.28;;;0.94;55.60
50650;BME280;36621;60.058;30.346;2023-04-03T20:07:53;102052.88;;;0.06;56.11
50650;BME280;36621;60.058;30.346;2023-04-03T20:16:01;102108.22;;;0.15;56.94
50650;BME280;36621;60.058;30.346;2023-04-03T20:23:34;102113.44;;;0.17;56.47
50650;BME280;36621;60.058;30.346;2023-04-03T20:31:11;102179.28;;;0.94;56.41
50650;BME280;36621;60.058;30.346;2023-04-03T20:38:48;102099.06;;;0.58;56.56
50650;BME280;36621;60.058;30.346;2023-04-03T20:46:50;102036.69;;;0.23;55.72
50650;BME280;36621;60.058;30.346;2023-04-03T20:54:24;102188.66;;;1.06;55.82
50650;BME280;36621;60.058;30.346;2023-04-03T21:01:59;102131.28;;;0.82;56.40
50650;BME280;36621;60.058;30.346;2023-04-03T21:25:38;102053.06;;;0.52;55.91
50650;BME280;36621;60.058;30.346;2023-04-03T21:33:11;102018.22;;;0.28;56.32
50650;BME280;36621;60.058;30.346;2023-04-03T21:40:43;102153.53;;;0.99;56.67
50650;BME280;36621;60.058;30.346;2023-04-03T21:48:21;101983.69;;;0.08;57.16
50650;BME280;36621;60.058;30.346;2023-04-03T21:56:09;102143.91;;;1.13;56.66
50650;BME280;36621;60.058;30.346;2023-04-03T22:04:17;102066.53;;;0.44;57.33
50650;BME280;36621;60.058;30.346;2023-04-03T22:11:55;102043.69;;;0.40;57.39
50650;BME280;36621;60.058;30.346;2023-04-03T22:37:07;102032.31;;;0.22;60.11
50650;BME280;36621;60.058;30.346;2023-04-03T23:03:48;102102.88;;;1.11;59.71
50650;BME280;36621;60.058;30.346;2023-04-03T23:11:58;102101.09;;;0.95;60.50
50650;BME280;36621;60.058;30.346;2023-04-03T23:27:56;101945.13;;;0.01;61.09
50650;BME280;36621;60.058;30.346;2023-04-03T23:35:43;101947.84;;;-0.07;62.19
50650;BME280;36621;60.058;30.346;2023-04-03T23:43:20;101956.44;;;-0.20;62.67
50650;BME280;36621;60.058;30.346;2023-04-03T23:50:53;101944.88;;;-0.29;62.92
50650;BME280;36621;60.058;30.346;2023-04-03T23:58:29;102084.66;;;0.50;62.98
